Terminal Aerodrome Forecast
Issued by NWS Cleveland, OH

Home | Current Version | Previous Version | Graphics & Text | Print | Product List | Glossary On
Versions: 1 2 3 4 5 6 7 8 9 10 11 12 13 14 15 16 17 18 19 20 21
603
FTUS41 KCLE 251121
TAFMFD
TAF
KMFD 251121Z 2512/2612 22010G18KT P6SM SCT045 OVC120
     FM251800 22010KT P6SM OVC045
     FM252200 08010KT 6SM HZ OVC035
     FM260200 12008KT 5SM BR OVC025
     FM260800 14006KT 3SM BR VCSH OVC045=

USA.gov is the U.S. government's official web portal to all federal, state and local government web resources and services.